Weather at Seruyan Kuala Pembuang Airport

Public forecast

Using degrees Celsius for public forecast. Weather courtesy of forecast.io.

Closest aviation weather report (METAR) to Seruyan Kuala Pembuang Airport

Closest report is Syamsudin Noor International Airport, 133.5 nm (247.2 km) E.

2023/01/30 00:00 (retrieved 50 minutes ago)

WAOO 300000Z 05003KT 9999 SCT015 25/24 Q1010 NOSIG

Closest aviation forecast (TAF) to Seruyan Kuala Pembuang Airport

Forecast is more than 6 hours old.

Closest forecast is Sultan Aji Muhammad Sulaiman Sepinggan International Airport, 290.4 nm (537.9 km) ENE.

2023/01/29 18:00 (retrieved 7 hours ago)

TAF WALL 291700Z 2918/3024 27004KT 9999 FEW018CB SCT020 TEMPO 2918/2921 7000 -RA BECMG 2921/2923 SCT020